sensor_id;sensor_type;location;lat;lon;timestamp;P1;durP1;ratioP1;P2;durP2;ratioP2
10667;SDS011;5382;42.136;24.796;2024-02-23T00:00:48;15.63;;;10.95;;
10667;SDS011;5382;42.136;24.796;2024-02-23T00:03:15;17.73;;;10.80;;
10667;SDS011;5382;42.136;24.796;2024-02-23T00:05:42;15.30;;;11.15;;
10667;SDS011;5382;42.136;24.796;2024-02-23T00:08:10;15.05;;;9.88;;
10667;SDS011;5382;42.136;24.796;2024-02-23T00:10:37;15.30;;;10.38;;
10667;SDS011;5382;42.136;24.796;2024-02-23T00:13:04;15.15;;;10.35;;
10667;SDS011;5382;42.136;24.796;2024-02-23T00:15:31;15.95;;;10.40;;
10667;SDS011;5382;42.136;24.796;2024-02-23T00:17:58;16.65;;;10.57;;
10667;SDS011;5382;42.136;24.796;2024-02-23T00:20:25;14.63;;;10.25;;
10667;SDS011;5382;42.136;24.796;2024-02-23T00:22:52;16.65;;;10.02;;
10667;SDS011;5382;42.136;24.796;2024-02-23T00:25:21;20.73;;;12.25;;
10667;SDS011;5382;42.136;24.796;2024-02-23T00:27:48;20.60;;;11.73;;
10667;SDS011;5382;42.136;24.796;2024-02-23T00:30:15;17.17;;;12.13;;
10667;SDS011;5382;42.136;24.796;2024-02-23T00:32:42;17.08;;;10.77;;
10667;SDS011;5382;42.136;24.796;2024-02-23T00:35:09;16.70;;;10.43;;
10667;SDS011;5382;42.136;24.796;2024-02-23T00:37:36;17.33;;;11.13;;
10667;SDS011;5382;42.136;24.796;2024-02-23T00:40:03;15.60;;;11.25;;
10667;SDS011;5382;42.136;24.796;2024-02-23T00:42:32;17.75;;;10.55;;
10667;SDS011;5382;42.136;24.796;2024-02-23T00:44:59;16.35;;;11.60;;
10667;SDS011;5382;42.136;24.796;2024-02-23T01:22:09;16.40;;;9.98;;
10667;SDS011;5382;42.136;24.796;2024-02-23T01:24:36;16.08;;;10.77;;
10667;SDS011;5382;42.136;24.796;2024-02-23T01:27:03;16.58;;;10.45;;
10667;SDS011;5382;42.136;24.796;2024-02-23T01:29:30;16.38;;;10.93;;
10667;SDS011;5382;42.136;24.796;2024-02-23T01:31:58;17.42;;;11.25;;
10667;SDS011;5382;42.136;24.796;2024-02-23T01:34:25;18.88;;;11.70;;
10667;SDS011;5382;42.136;24.796;2024-02-23T01:36:52;14.25;;;9.75;;
10667;SDS011;5382;42.136;24.796;2024-02-23T01:39:20;15.43;;;10.93;;
10667;SDS011;5382;42.136;24.796;2024-02-23T01:41:47;17.33;;;10.95;;
10667;SDS011;5382;42.136;24.796;2024-02-23T01:44:14;15.20;;;9.65;;
10667;SDS011;5382;42.136;24.796;2024-02-23T01:46:42;12.65;;;9.40;;
10667;SDS011;5382;42.136;24.796;2024-02-23T01:49:09;14.93;;;9.90;;
10667;SDS011;5382;42.136;24.796;2024-02-23T01:51:37;15.98;;;10.13;;
10667;SDS011;5382;42.136;24.796;2024-02-23T01:54:04;13.70;;;9.85;;
10667;SDS011;5382;42.136;24.796;2024-02-23T01:56:33;16.48;;;10.32;;
10667;SDS011;5382;42.136;24.796;2024-02-23T01:59:01;15.82;;;11.20;;
10667;SDS011;5382;42.136;24.796;2024-02-23T02:18:19;17.27;;;10.52;;
10667;SDS011;5382;42.136;24.796;2024-02-23T02:20:50;13.88;;;10.50;;
10667;SDS011;5382;42.136;24.796;2024-02-23T02:23:19;12.68;;;8.77;;
10667;SDS011;5382;42.136;24.796;2024-02-23T02:42:37;15.77;;;10.48;;
10667;SDS011;5382;42.136;24.796;2024-02-23T02:45:04;13.43;;;9.43;;
10667;SDS011;5382;42.136;24.796;2024-02-23T02:47:31;22.88;;;10.70;;
10667;SDS011;5382;42.136;24.796;2024-02-23T02:49:59;12.95;;;9.50;;
10667;SDS011;5382;42.136;24.796;2024-02-23T02:52:27;20.85;;;10.98;;
10667;SDS011;5382;42.136;24.796;2024-02-23T02:54:54;16.70;;;10.50;;
10667;SDS011;5382;42.136;24.796;2024-02-23T02:57:21;14.05;;;10.43;;
10667;SDS011;5382;42.136;24.796;2024-02-23T02:59:50;16.27;;;10.93;;
10667;SDS011;5382;42.136;24.796;2024-02-23T03:02:17;18.58;;;11.68;;
10667;SDS011;5382;42.136;24.796;2024-02-23T03:04:47;16.20;;;9.77;;
10667;SDS011;5382;42.136;24.796;2024-02-23T03:07:14;16.33;;;10.27;;
10667;SDS011;5382;42.136;24.796;2024-02-23T03:09:41;16.95;;;9.48;;
10667;SDS011;5382;42.136;24.796;2024-02-23T03:12:08;15.73;;;10.23;;
10667;SDS011;5382;42.136;24.796;2024-02-23T03:14:36;16.50;;;10.73;;
10667;SDS011;5382;42.136;24.796;2024-02-23T03:17:06;16.05;;;10.27;;
10667;SDS011;5382;42.136;24.796;2024-02-23T03:19:34;18.42;;;10.32;;
10667;SDS011;5382;42.136;24.796;2024-02-23T03:22:01;20.70;;;10.93;;
10667;SDS011;5382;42.136;24.796;2024-02-23T03:24:28;17.20;;;10.85;;
10667;SDS011;5382;42.136;24.796;2024-02-23T03:26:55;17.98;;;12.10;;
10667;SDS011;5382;42.136;24.796;2024-02-23T03:29:22;21.42;;;11.27;;
10667;SDS011;5382;42.136;24.796;2024-02-23T03:31:49;20.65;;;11.23;;
10667;SDS011;5382;42.136;24.796;2024-02-23T03:34:18;20.02;;;10.55;;
10667;SDS011;5382;42.136;24.796;2024-02-23T03:36:45;21.10;;;11.73;;
10667;SDS011;5382;42.136;24.796;2024-02-23T03:39:12;19.48;;;11.20;;
10667;SDS011;5382;42.136;24.796;2024-02-23T03:41:39;18.17;;;9.98;;
10667;SDS011;5382;42.136;24.796;2024-02-23T03:44:07;22.92;;;9.50;;
10667;SDS011;5382;42.136;24.796;2024-02-23T03:46:35;18.05;;;10.32;;
10667;SDS011;5382;42.136;24.796;2024-02-23T03:49:07;14.98;;;9.77;;
10667;SDS011;5382;42.136;24.796;2024-02-23T03:51:36;19.35;;;10.40;;
10667;SDS011;5382;42.136;24.796;2024-02-23T03:54:04;18.42;;;10.40;;
10667;SDS011;5382;42.136;24.796;2024-02-23T03:56:37;15.68;;;9.55;;
10667;SDS011;5382;42.136;24.796;2024-02-23T03:59:04;15.02;;;10.88;;
10667;SDS011;5382;42.136;24.796;2024-02-23T04:01:34;17.98;;;11.40;;
10667;SDS011;5382;42.136;24.796;2024-02-23T04:04:01;13.95;;;10.02;;
10667;SDS011;5382;42.136;24.796;2024-02-23T04:06:28;15.73;;;9.60;;
10667;SDS011;5382;42.136;24.796;2024-02-23T04:08:57;13.65;;;9.13;;
10667;SDS011;5382;42.136;24.796;2024-02-23T04:11:24;16.08;;;10.43;;
10667;SDS011;5382;42.136;24.796;2024-02-23T04:13:52;19.35;;;10.65;;
10667;SDS011;5382;42.136;24.796;2024-02-23T04:16:22;21.45;;;10.60;;
10667;SDS011;5382;42.136;24.796;2024-02-23T04:18:50;21.17;;;11.02;;
10667;SDS011;5382;42.136;24.796;2024-02-23T04:21:17;23.30;;;12.52;;
10667;SDS011;5382;42.136;24.796;2024-02-23T04:23:44;16.73;;;12.00;;
10667;SDS011;5382;42.136;24.796;2024-02-23T04:26:12;23.42;;;12.95;;
10667;SDS011;5382;42.136;24.796;2024-02-23T04:28:40;21.65;;;12.68;;
10667;SDS011;5382;42.136;24.796;2024-02-23T04:31:07;31.95;;;14.63;;
10667;SDS011;5382;42.136;24.796;2024-02-23T04:33:35;23.35;;;13.57;;
10667;SDS011;5382;42.136;24.796;2024-02-23T04:36:02;28.88;;;14.20;;
10667;SDS011;5382;42.136;24.796;2024-02-23T04:38:29;24.23;;;13.10;;
10667;SDS011;5382;42.136;24.796;2024-02-23T04:40:56;17.95;;;11.38;;
10667;SDS011;5382;42.136;24.796;2024-02-23T04:43:25;20.05;;;10.38;;
10667;SDS011;5382;42.136;24.796;2024-02-23T04:45:52;19.13;;;10.70;;
10667;SDS011;5382;42.136;24.796;2024-02-23T04:48:19;17.27;;;11.20;;
10667;SDS011;5382;42.136;24.796;2024-02-23T04:50:46;19.85;;;12.57;;
10667;SDS011;5382;42.136;24.796;2024-02-23T04:53:13;22.95;;;12.23;;
10667;SDS011;5382;42.136;24.796;2024-02-23T04:55:40;16.75;;;11.02;;
10667;SDS011;5382;42.136;24.796;2024-02-23T04:58:07;27.85;;;11.13;;
10667;SDS011;5382;42.136;24.796;2024-02-23T05:00:35;19.98;;;11.40;;
10667;SDS011;5382;42.136;24.796;2024-02-23T05:03:02;17.58;;;10.45;;
10667;SDS011;5382;42.136;24.796;2024-02-23T05:05:30;18.77;;;10.82;;
10667;SDS011;5382;42.136;24.796;2024-02-23T05:07:57;18.05;;;10.63;;
10667;SDS011;5382;42.136;24.796;2024-02-23T05:10:24;19.60;;;11.57;;
10667;SDS011;5382;42.136;24.796;2024-02-23T05:12:51;18.38;;;10.85;;
10667;SDS011;5382;42.136;24.796;2024-02-23T05:15:18;20.77;;;10.45;;
10667;SDS011;5382;42.136;24.796;2024-02-23T05:17:46;17.17;;;10.77;;
10667;SDS011;5382;42.136;24.796;2024-02-23T05:20:13;20.42;;;11.88;;
10667;SDS011;5382;42.136;24.796;2024-02-23T05:22:40;19.40;;;10.20;;
10667;SDS011;5382;42.136;24.796;2024-02-23T05:25:07;20.42;;;12.02;;
10667;SDS011;5382;42.136;24.796;2024-02-23T05:27:34;17.73;;;11.05;;
10667;SDS011;5382;42.136;24.796;2024-02-23T05:30:01;19.13;;;11.60;;
10667;SDS011;5382;42.136;24.796;2024-02-23T05:32:29;21.02;;;12.55;;
10667;SDS011;5382;42.136;24.796;2024-02-23T05:34:57;20.55;;;12.57;;
10667;SDS011;5382;42.136;24.796;2024-02-23T05:37:24;17.90;;;12.52;;
10667;SDS011;5382;42.136;24.796;2024-02-23T05:39:53;20.63;;;12.60;;
10667;SDS011;5382;42.136;24.796;2024-02-23T05:42:20;19.52;;;12.23;;
10667;SDS011;5382;42.136;24.796;2024-02-23T05:44:47;20.15;;;12.90;;
10667;SDS011;5382;42.136;24.796;2024-02-23T05:47:14;23.08;;;12.77;;
10667;SDS011;5382;42.136;24.796;2024-02-23T05:49:41;30.00;;;14.07;;
10667;SDS011;5382;42.136;24.796;2024-02-23T05:52:10;20.85;;;11.82;;
10667;SDS011;5382;42.136;24.796;2024-02-23T05:54:37;19.48;;;12.82;;
10667;SDS011;5382;42.136;24.796;2024-02-23T05:57:04;19.05;;;12.73;;
10667;SDS011;5382;42.136;24.796;2024-02-23T05:59:31;27.30;;;15.75;;
10667;SDS011;5382;42.136;24.796;2024-02-23T06:01:58;22.75;;;13.98;;
10667;SDS011;5382;42.136;24.796;2024-02-23T06:04:25;23.65;;;13.57;;
10667;SDS011;5382;42.136;24.796;2024-02-23T06:06:52;30.45;;;13.90;;
10667;SDS011;5382;42.136;24.796;2024-02-23T06:09:20;22.75;;;13.18;;
10667;SDS011;5382;42.136;24.796;2024-02-23T06:11:47;18.40;;;12.70;;
10667;SDS011;5382;42.136;24.796;2024-02-23T06:14:14;19.33;;;11.90;;
10667;SDS011;5382;42.136;24.796;2024-02-23T06:16:41;21.25;;;12.25;;
10667;SDS011;5382;42.136;24.796;2024-02-23T06:19:08;9.30;;;7.07;;
10667;SDS011;5382;42.136;24.796;2024-02-23T06:21:36;24.83;;;11.98;;
10667;SDS011;5382;42.136;24.796;2024-02-23T06:24:03;21.15;;;12.10;;
10667;SDS011;5382;42.136;24.796;2024-02-23T06:26:31;18.58;;;12.68;;
10667;SDS011;5382;42.136;24.796;2024-02-23T06:28:58;20.48;;;11.80;;
10667;SDS011;5382;42.136;24.796;2024-02-23T06:31:25;19.08;;;11.98;;
10667;SDS011;5382;42.136;24.796;2024-02-23T06:33:52;18.40;;;12.52;;
10667;SDS011;5382;42.136;24.796;2024-02-23T06:36:19;20.75;;;12.43;;
10667;SDS011;5382;42.136;24.796;2024-02-23T06:38:46;19.95;;;11.57;;
10667;SDS011;5382;42.136;24.796;2024-02-23T06:41:13;20.88;;;12.15;;
10667;SDS011;5382;42.136;24.796;2024-02-23T06:43:42;16.05;;;9.93;;
10667;SDS011;5382;42.136;24.796;2024-02-23T06:46:09;18.52;;;10.05;;
10667;SDS011;5382;42.136;24.796;2024-02-23T06:48:36;14.95;;;10.18;;
10667;SDS011;5382;42.136;24.796;2024-02-23T06:51:03;18.83;;;10.93;;
10667;SDS011;5382;42.136;24.796;2024-02-23T06:53:34;16.85;;;11.13;;
10667;SDS011;5382;42.136;24.796;2024-02-23T06:56:01;18.17;;;11.30;;
10667;SDS011;5382;42.136;24.796;2024-02-23T06:58:28;21.60;;;11.40;;
10667;SDS011;5382;42.136;24.796;2024-02-23T07:00:57;19.15;;;11.73;;
10667;SDS011;5382;42.136;24.796;2024-02-23T07:03:25;18.42;;;11.63;;
10667;SDS011;5382;42.136;24.796;2024-02-23T07:05:52;16.90;;;11.07;;
10667;SDS011;5382;42.136;24.796;2024-02-23T07:08:19;20.55;;;12.88;;
10667;SDS011;5382;42.136;24.796;2024-02-23T07:10:46;19.02;;;11.25;;
10667;SDS011;5382;42.136;24.796;2024-02-23T07:13:13;19.42;;;12.35;;
10667;SDS011;5382;42.136;24.796;2024-02-23T07:15:41;21.05;;;12.70;;
10667;SDS011;5382;42.136;24.796;2024-02-23T07:18:10;24.33;;;13.18;;
10667;SDS011;5382;42.136;24.796;2024-02-23T07:20:37;20.10;;;13.50;;
10667;SDS011;5382;42.136;24.796;2024-02-23T07:23:04;19.88;;;12.43;;
10667;SDS011;5382;42.136;24.796;2024-02-23T07:25:31;22.52;;;11.95;;
10667;SDS011;5382;42.136;24.796;2024-02-23T07:27:58;21.02;;;12.80;;
10667;SDS011;5382;42.136;24.796;2024-02-23T07:30:25;19.67;;;13.00;;
10667;SDS011;5382;42.136;24.796;2024-02-23T07:35:30;17.13;;;11.80;;
10667;SDS011;5382;42.136;24.796;2024-02-23T07:37:58;21.92;;;12.50;;
10667;SDS011;5382;42.136;24.796;2024-02-23T07:40:25;16.77;;;11.90;;
10667;SDS011;5382;42.136;24.796;2024-02-23T07:42:52;16.90;;;11.27;;
10667;SDS011;5382;42.136;24.796;2024-02-23T07:45:19;14.88;;;10.88;;
10667;SDS011;5382;42.136;24.796;2024-02-23T07:47:46;15.13;;;10.07;;
10667;SDS011;5382;42.136;24.796;2024-02-23T07:50:13;20.00;;;16.40;;
10667;SDS011;5382;42.136;24.796;2024-02-23T07:52:42;15.13;;;13.55;;
10667;SDS011;5382;42.136;24.796;2024-02-23T07:55:09;18.92;;;14.45;;
10667;SDS011;5382;42.136;24.796;2024-02-23T07:57:36;15.77;;;13.43;;
10667;SDS011;5382;42.136;24.796;2024-02-23T08:00:05;18.77;;;13.25;;
10667;SDS011;5382;42.136;24.796;2024-02-23T08:02:35;21.05;;;13.18;;
10667;SDS011;5382;42.136;24.796;2024-02-23T08:05:01;17.40;;;14.93;;
10667;SDS011;5382;42.136;24.796;2024-02-23T08:07:29;16.83;;;13.80;;
10667;SDS011;5382;42.136;24.796;2024-02-23T08:09:58;17.42;;;14.93;;
10667;SDS011;5382;42.136;24.796;2024-02-23T08:12:25;18.50;;;12.27;;
10667;SDS011;5382;42.136;24.796;2024-02-23T08:14:52;16.10;;;14.10;;
10667;SDS011;5382;42.136;24.796;2024-02-23T08:17:19;19.13;;;14.73;;
10667;SDS011;5382;42.136;24.796;2024-02-23T08:19:46;18.77;;;11.27;;
10667;SDS011;5382;42.136;24.796;2024-02-23T08:22:13;19.55;;;13.90;;
10667;SDS011;5382;42.136;24.796;2024-02-23T08:24:40;21.38;;;11.13;;
10667;SDS011;5382;42.136;24.796;2024-02-23T08:27:09;15.40;;;10.07;;
10667;SDS011;5382;42.136;24.796;2024-02-23T08:29:37;16.77;;;13.13;;
10667;SDS011;5382;42.136;24.796;2024-02-23T08:32:05;17.70;;;13.40;;
10667;SDS011;5382;42.136;24.796;2024-02-23T08:34:32;15.07;;;10.57;;
10667;SDS011;5382;42.136;24.796;2024-02-23T08:36:59;17.58;;;13.57;;
10667;SDS011;5382;42.136;24.796;2024-02-23T08:39:26;17.17;;;13.55;;
10667;SDS011;5382;42.136;24.796;2024-02-23T08:41:54;17.10;;;13.80;;
10667;SDS011;5382;42.136;24.796;2024-02-23T08:44:22;15.60;;;10.50;;
10667;SDS011;5382;42.136;24.796;2024-02-23T08:46:49;17.60;;;13.68;;
10667;SDS011;5382;42.136;24.796;2024-02-23T08:49:16;17.48;;;12.65;;
10667;SDS011;5382;42.136;24.796;2024-02-23T08:51:43;15.55;;;11.77;;
10667;SDS011;5382;42.136;24.796;2024-02-23T08:54:10;13.82;;;12.27;;
10667;SDS011;5382;42.136;24.796;2024-02-23T08:56:37;13.02;;;11.40;;
10667;SDS011;5382;42.136;24.796;2024-02-23T08:59:07;14.68;;;12.50;;
10667;SDS011;5382;42.136;24.796;2024-02-23T09:01:36;13.88;;;12.35;;
10667;SDS011;5382;42.136;24.796;2024-02-23T09:04:03;13.25;;;11.90;;
10667;SDS011;5382;42.136;24.796;2024-02-23T09:06:30;14.65;;;12.35;;
10667;SDS011;5382;42.136;24.796;2024-02-23T09:08:58;13.50;;;12.10;;
10667;SDS011;5382;42.136;24.796;2024-02-23T09:11:25;14.43;;;12.40;;
10667;SDS011;5382;42.136;24.796;2024-02-23T09:13:52;15.18;;;12.98;;
10667;SDS011;5382;42.136;24.796;2024-02-23T09:16:19;15.18;;;13.57;;
10667;SDS011;5382;42.136;24.796;2024-02-23T09:18:49;13.73;;;12.32;;
10667;SDS011;5382;42.136;24.796;2024-02-23T09:21:16;13.10;;;11.52;;
10667;SDS011;5382;42.136;24.796;2024-02-23T09:23:44;12.82;;;11.48;;
10667;SDS011;5382;42.136;24.796;2024-02-23T09:26:14;17.00;;;13.77;;
10667;SDS011;5382;42.136;24.796;2024-02-23T09:28:41;14.98;;;12.45;;
10667;SDS011;5382;42.136;24.796;2024-02-23T09:31:10;18.55;;;13.25;;
10667;SDS011;5382;42.136;24.796;2024-02-23T09:33:37;15.23;;;13.07;;
10667;SDS011;5382;42.136;24.796;2024-02-23T09:36:05;16.27;;;11.00;;
10667;SDS011;5382;42.136;24.796;2024-02-23T09:38:33;15.43;;;13.82;;
10667;SDS011;5382;42.136;24.796;2024-02-23T09:41:00;15.10;;;12.25;;
10667;SDS011;5382;42.136;24.796;2024-02-23T09:43:27;13.50;;;12.10;;
10667;SDS011;5382;42.136;24.796;2024-02-23T09:45:55;13.68;;;12.27;;
10667;SDS011;5382;42.136;24.796;2024-02-23T09:48:23;13.88;;;12.40;;
10667;SDS011;5382;42.136;24.796;2024-02-23T09:50:50;15.88;;;13.05;;
10667;SDS011;5382;42.136;24.796;2024-02-23T09:53:20;16.02;;;12.73;;
10667;SDS011;5382;42.136;24.796;2024-02-23T09:55:49;15.23;;;12.77;;
10667;SDS011;5382;42.136;24.796;2024-02-23T09:58:17;13.50;;;12.13;;
10667;SDS011;5382;42.136;24.796;2024-02-23T10:00:47;16.65;;;12.32;;
10667;SDS011;5382;42.136;24.796;2024-02-23T10:03:13;16.05;;;13.07;;
10667;SDS011;5382;42.136;24.796;2024-02-23T10:05:40;16.45;;;12.30;;
10667;SDS011;5382;42.136;24.796;2024-02-23T10:08:09;13.63;;;12.23;;
10667;SDS011;5382;42.136;24.796;2024-02-23T10:10:38;14.27;;;12.38;;
10667;SDS011;5382;42.136;24.796;2024-02-23T10:13:06;16.55;;;13.13;;
10667;SDS011;5382;42.136;24.796;2024-02-23T10:15:33;13.45;;;12.05;;
10667;SDS011;5382;42.136;24.796;2024-02-23T10:18:00;16.73;;;12.98;;
10667;SDS011;5382;42.136;24.796;2024-02-23T10:20:27;14.02;;;11.90;;
10667;SDS011;5382;42.136;24.796;2024-02-23T10:22:54;14.32;;;11.82;;
10667;SDS011;5382;42.136;24.796;2024-02-23T10:25:22;12.38;;;10.77;;
10667;SDS011;5382;42.136;24.796;2024-02-23T10:27:50;12.63;;;11.32;;
10667;SDS011;5382;42.136;24.796;2024-02-23T10:30:17;12.05;;;10.82;;
10667;SDS011;5382;42.136;24.796;2024-02-23T10:32:44;14.90;;;11.27;;
10667;SDS011;5382;42.136;24.796;2024-02-23T10:35:13;13.50;;;11.00;;
10667;SDS011;5382;42.136;24.796;2024-02-23T10:37:42;13.55;;;12.05;;
10667;SDS011;5382;42.136;24.796;2024-02-23T10:40:11;13.35;;;10.80;;
10667;SDS011;5382;42.136;24.796;2024-02-23T10:42:39;12.38;;;11.07;;
10667;SDS011;5382;42.136;24.796;2024-02-23T10:45:09;12.57;;;11.15;;
10667;SDS011;5382;42.136;24.796;2024-02-23T10:47:36;20.58;;;11.32;;
10667;SDS011;5382;42.136;24.796;2024-02-23T10:50:04;12.50;;;11.18;;
10667;SDS011;5382;42.136;24.796;2024-02-23T10:52:32;12.18;;;11.00;;
10667;SDS011;5382;42.136;24.796;2024-02-23T10:55:00;13.13;;;11.80;;
10667;SDS011;5382;42.136;24.796;2024-02-23T10:57:30;12.23;;;11.02;;
10667;SDS011;5382;42.136;24.796;2024-02-23T10:59:58;12.40;;;11.05;;
10667;SDS011;5382;42.136;24.796;2024-02-23T11:02:28;11.57;;;10.48;;
10667;SDS011;5382;42.136;24.796;2024-02-23T11:04:57;11.80;;;10.60;;
10667;SDS011;5382;42.136;24.796;2024-02-23T11:07:26;13.70;;;11.38;;
10667;SDS011;5382;42.136;24.796;2024-02-23T11:09:58;11.65;;;10.50;;
10667;SDS011;5382;42.136;24.796;2024-02-23T11:12:25;12.50;;;10.68;;
10667;SDS011;5382;42.136;24.796;2024-02-23T11:14:56;13.55;;;9.82;;
10667;SDS011;5382;42.136;24.796;2024-02-23T11:17:25;10.23;;;9.25;;
10667;SDS011;5382;42.136;24.796;2024-02-23T11:19:55;10.20;;;9.25;;
10667;SDS011;5382;42.136;24.796;2024-02-23T11:22:26;11.65;;;10.55;;
10667;SDS011;5382;42.136;24.796;2024-02-23T11:24:59;10.93;;;9.82;;
10667;SDS011;5382;42.136;24.796;2024-02-23T11:27:29;10.43;;;9.35;;
10667;SDS011;5382;42.136;24.796;2024-02-23T11:30:01;9.93;;;8.45;;
10667;SDS011;5382;42.136;24.796;2024-02-23T11:32:38;10.20;;;8.15;;
10667;SDS011;5382;42.136;24.796;2024-02-23T11:35:06;8.80;;;8.00;;
10667;SDS011;5382;42.136;24.796;2024-02-23T11:37:43;10.73;;;9.57;;
10667;SDS011;5382;42.136;24.796;2024-02-23T11:40:14;38.35;;;11.48;;
10667;SDS011;5382;42.136;24.796;2024-02-23T11:42:41;9.15;;;8.20;;
10667;SDS011;5382;42.136;24.796;2024-02-23T11:45:09;8.63;;;7.93;;
10667;SDS011;5382;42.136;24.796;2024-02-23T11:47:38;8.73;;;7.93;;
10667;SDS011;5382;42.136;24.796;2024-02-23T11:50:07;9.27;;;8.30;;
10667;SDS011;5382;42.136;24.796;2024-02-23T11:52:36;9.57;;;8.68;;
10667;SDS011;5382;42.136;24.796;2024-02-23T11:55:04;9.10;;;8.20;;
10667;SDS011;5382;42.136;24.796;2024-02-23T11:57:33;7.80;;;7.00;;
10667;SDS011;5382;42.136;24.796;2024-02-23T12:00:00;9.30;;;7.72;;
10667;SDS011;5382;42.136;24.796;2024-02-23T12:02:28;8.90;;;8.02;;
10667;SDS011;5382;42.136;24.796;2024-02-23T12:04:56;8.38;;;7.57;;
10667;SDS011;5382;42.136;24.796;2024-02-23T12:07:23;9.05;;;8.25;;
10667;SDS011;5382;42.136;24.796;2024-02-23T12:09:53;10.10;;;8.45;;
10667;SDS011;5382;42.136;24.796;2024-02-23T12:12:21;8.90;;;8.07;;
10667;SDS011;5382;42.136;24.796;2024-02-23T12:14:48;8.88;;;8.00;;
10667;SDS011;5382;42.136;24.796;2024-02-23T12:17:15;11.48;;;8.02;;
10667;SDS011;5382;42.136;24.796;2024-02-23T12:19:43;8.85;;;8.05;;
10667;SDS011;5382;42.136;24.796;2024-02-23T12:22:12;9.27;;;8.20;;
10667;SDS011;5382;42.136;24.796;2024-02-23T12:24:40;8.85;;;8.05;;
10667;SDS011;5382;42.136;24.796;2024-02-23T12:27:07;10.13;;;8.30;;
10667;SDS011;5382;42.136;24.796;2024-02-23T12:29:34;9.02;;;7.80;;
10667;SDS011;5382;42.136;24.796;2024-02-23T12:32:02;8.88;;;7.97;;
10667;SDS011;5382;42.136;24.796;2024-02-23T12:34:30;10.82;;;8.20;;
10667;SDS011;5382;42.136;24.796;2024-02-23T12:36:57;9.05;;;7.90;;
10667;SDS011;5382;42.136;24.796;2024-02-23T12:39:25;9.02;;;8.13;;
10667;SDS011;5382;42.136;24.796;2024-02-23T12:41:52;7.90;;;7.10;;
10667;SDS011;5382;42.136;24.796;2024-02-23T12:44:22;7.93;;;7.28;;
10667;SDS011;5382;42.136;24.796;2024-02-23T12:46:49;8.93;;;7.53;;
10667;SDS011;5382;42.136;24.796;2024-02-23T12:49:16;10.98;;;7.28;;
10667;SDS011;5382;42.136;24.796;2024-02-23T12:51:42;7.68;;;6.95;;
10667;SDS011;5382;42.136;24.796;2024-02-23T12:54:09;7.97;;;7.18;;
10667;SDS011;5382;42.136;24.796;2024-02-23T12:56:38;8.15;;;7.35;;
10667;SDS011;5382;42.136;24.796;2024-02-23T12:59:05;7.47;;;6.75;;
10667;SDS011;5382;42.136;24.796;2024-02-23T13:01:32;7.80;;;7.10;;
10667;SDS011;5382;42.136;24.796;2024-02-23T13:04:02;7.13;;;6.53;;
10667;SDS011;5382;42.136;24.796;2024-02-23T13:06:34;6.88;;;6.28;;
10667;SDS011;5382;42.136;24.796;2024-02-23T13:09:02;7.95;;;7.15;;
10667;SDS011;5382;42.136;24.796;2024-02-23T13:11:29;6.63;;;6.00;;
10667;SDS011;5382;42.136;24.796;2024-02-23T13:13:57;7.35;;;6.53;;
10667;SDS011;5382;42.136;24.796;2024-02-23T13:16:24;9.30;;;7.32;;
10667;SDS011;5382;42.136;24.796;2024-02-23T13:18:54;7.20;;;6.50;;
10667;SDS011;5382;42.136;24.796;2024-02-23T13:21:21;10.52;;;6.88;;
10667;SDS011;5382;42.136;24.796;2024-02-23T13:23:49;7.45;;;6.70;;
10667;SDS011;5382;42.136;24.796;2024-02-23T13:26:16;7.20;;;6.13;;
10667;SDS011;5382;42.136;24.796;2024-02-23T13:28:43;11.57;;;6.40;;
10667;SDS011;5382;42.136;24.796;2024-02-23T13:31:12;7.72;;;6.95;;
10667;SDS011;5382;42.136;24.796;2024-02-23T13:33:40;8.32;;;6.35;;
10667;SDS011;5382;42.136;24.796;2024-02-23T13:36:07;7.22;;;6.53;;
10667;SDS011;5382;42.136;24.796;2024-02-23T13:38:35;7.00;;;6.38;;
10667;SDS011;5382;42.136;24.796;2024-02-23T13:41:04;7.60;;;6.85;;
10667;SDS011;5382;42.136;24.796;2024-02-23T13:43:31;7.88;;;7.07;;
10667;SDS011;5382;42.136;24.796;2024-02-23T13:45:59;9.63;;;7.20;;
10667;SDS011;5382;42.136;24.796;2024-02-23T13:48:30;34.38;;;8.35;;
10667;SDS011;5382;42.136;24.796;2024-02-23T13:50:57;8.30;;;7.50;;
10667;SDS011;5382;42.136;24.796;2024-02-23T13:53:28;7.72;;;6.78;;
10667;SDS011;5382;42.136;24.796;2024-02-23T13:55:55;6.70;;;6.10;;
10667;SDS011;5382;42.136;24.796;2024-02-23T13:58:22;6.90;;;6.35;;
10667;SDS011;5382;42.136;24.796;2024-02-23T14:00:49;6.57;;;5.95;;
10667;SDS011;5382;42.136;24.796;2024-02-23T14:03:17;7.00;;;6.40;;
10667;SDS011;5382;42.136;24.796;2024-02-23T14:05:45;11.57;;;6.90;;
10667;SDS011;5382;42.136;24.796;2024-02-23T14:08:12;7.20;;;6.60;;
10667;SDS011;5382;42.136;24.796;2024-02-23T14:10:39;6.97;;;6.35;;
10667;SDS011;5382;42.136;24.796;2024-02-23T14:13:08;10.20;;;6.45;;
10667;SDS011;5382;42.136;24.796;2024-02-23T14:15:35;12.40;;;6.90;;
10667;SDS011;5382;42.136;24.796;2024-02-23T14:18:03;8.73;;;7.28;;
10667;SDS011;5382;42.136;24.796;2024-02-23T14:20:30;8.55;;;6.43;;
10667;SDS011;5382;42.136;24.796;2024-02-23T14:22:58;7.32;;;6.72;;
10667;SDS011;5382;42.136;24.796;2024-02-23T14:25:25;6.65;;;6.05;;
10667;SDS011;5382;42.136;24.796;2024-02-23T14:27:53;9.18;;;6.20;;
10667;SDS011;5382;42.136;24.796;2024-02-23T14:30:21;19.65;;;7.47;;
10667;SDS011;5382;42.136;24.796;2024-02-23T14:32:48;11.15;;;7.20;;
10667;SDS011;5382;42.136;24.796;2024-02-23T14:35:15;7.95;;;6.53;;
10667;SDS011;5382;42.136;24.796;2024-02-23T14:37:42;6.68;;;6.05;;
10667;SDS011;5382;42.136;24.796;2024-02-23T14:40:11;6.65;;;5.95;;
10667;SDS011;5382;42.136;24.796;2024-02-23T14:42:40;6.38;;;5.85;;
10667;SDS011;5382;42.136;24.796;2024-02-23T14:45:07;6.53;;;5.93;;
10667;SDS011;5382;42.136;24.796;2024-02-23T14:47:34;7.10;;;6.50;;
10667;SDS011;5382;42.136;24.796;2024-02-23T14:50:01;7.18;;;6.43;;
10667;SDS011;5382;42.136;24.796;2024-02-23T14:52:29;7.20;;;6.50;;
10667;SDS011;5382;42.136;24.796;2024-02-23T14:54:56;7.03;;;6.32;;
10667;SDS011;5382;42.136;24.796;2024-02-23T14:57:24;6.80;;;6.20;;
10667;SDS011;5382;42.136;24.796;2024-02-23T14:59:51;6.88;;;6.18;;
10667;SDS011;5382;42.136;24.796;2024-02-23T15:02:19;7.65;;;6.40;;
10667;SDS011;5382;42.136;24.796;2024-02-23T15:04:46;6.65;;;5.70;;
10667;SDS011;5382;42.136;24.796;2024-02-23T15:07:14;7.13;;;6.50;;
10667;SDS011;5382;42.136;24.796;2024-02-23T15:09:41;7.00;;;6.30;;
10667;SDS011;5382;42.136;24.796;2024-02-23T15:12:08;7.38;;;6.15;;
10667;SDS011;5382;42.136;24.796;2024-02-23T15:14:37;7.07;;;6.28;;
10667;SDS011;5382;42.136;24.796;2024-02-23T15:17:06;7.38;;;6.68;;
10667;SDS011;5382;42.136;24.796;2024-02-23T15:19:32;6.82;;;6.22;;
10667;SDS011;5382;42.136;24.796;2024-02-23T15:22:00;8.68;;;6.57;;
10667;SDS011;5382;42.136;24.796;2024-02-23T15:24:26;9.43;;;7.10;;
10667;SDS011;5382;42.136;24.796;2024-02-23T15:26:53;10.68;;;6.43;;
10667;SDS011;5382;42.136;24.796;2024-02-23T15:29:20;8.25;;;7.32;;
10667;SDS011;5382;42.136;24.796;2024-02-23T15:31:49;8.13;;;7.00;;
10667;SDS011;5382;42.136;24.796;2024-02-23T15:34:16;6.60;;;5.95;;
10667;SDS011;5382;42.136;24.796;2024-02-23T15:36:44;8.85;;;6.35;;
10667;SDS011;5382;42.136;24.796;2024-02-23T15:39:11;8.00;;;7.20;;
10667;SDS011;5382;42.136;24.796;2024-02-23T15:41:39;9.70;;;7.32;;